createdAt,value
2022-11-30T00:07:35.095Z,77258.53
2022-11-30T00:17:37.208Z,77262.59
2022-11-30T00:27:46.628Z,77260.56
2022-11-30T00:37:50.190Z,77278.78
2022-11-30T00:47:55.882Z,77276.75
2022-11-30T00:58:00.390Z,77266.66
2022-11-30T01:08:07.601Z,77266.66
2022-11-30T01:18:12.062Z,77280.81
2022-11-30T01:28:17.200Z,77260.56
2022-11-30T01:38:22.471Z,77260.56
2022-11-30T01:48:29.349Z,77286.88
2022-11-30T01:58:36.758Z,77276.75
2022-11-30T02:08:38.983Z,77272.72
2022-11-30T02:18:41.049Z,77266.66
2022-11-30T02:29:00.869Z,77276.75
2022-11-30T02:39:03.234Z,77268.66
2022-11-30T02:49:10.123Z,77288.91
2022-11-30T02:59:12.687Z,77292.97
2022-11-30T03:09:15.086Z,77305.13
2022-11-30T03:19:21.830Z,77297.00
2022-11-30T03:29:24.261Z,77295.00
2022-11-30T03:39:26.401Z,77313.22
2022-11-30T03:49:28.574Z,77313.22
2022-11-30T03:59:33.012Z,77307.13
2022-11-30T04:09:35.031Z,77309.16
2022-11-30T04:19:41.619Z,77305.13
2022-11-30T04:29:44.062Z,77299.03
2022-11-30T04:39:50.669Z,77305.13
2022-11-30T04:49:56.251Z,77301.06
2022-11-30T05:00:00.888Z,77303.09
2022-11-30T05:10:06.750Z,77299.03
2022-11-30T05:20:13.994Z,77315.22
2022-11-30T05:30:21.434Z,77313.22
2022-11-30T05:40:25.904Z,77317.25
2022-11-30T05:50:28.211Z,77341.56
2022-11-30T06:00:30.240Z,77323.34
2022-11-30T06:10:36.739Z,77297.00
2022-11-30T06:20:39.233Z,77303.09
2022-11-30T06:30:43.889Z,77333.44
2022-11-30T06:40:45.959Z,77349.66
2022-11-30T06:50:50.240Z,77357.75
2022-11-30T07:00:55.095Z,77359.78
2022-11-30T07:10:59.627Z,77365.84
2022-11-30T07:21:07.402Z,77361.81
2022-11-30T07:31:21.730Z,77371.91
2022-11-30T07:41:28.837Z,77382.03
2022-11-30T07:51:37.410Z,77373.94
2022-11-30T08:01:39.537Z,77382.03
2022-11-30T08:11:41.808Z,77375.97
2022-11-30T08:21:46.049Z,77373.94
2022-11-30T08:31:48.165Z,77380.03
2022-11-30T08:41:53.260Z,77375.97
2022-11-30T08:52:17.831Z,77380.03
2022-11-30T09:02:20.480Z,77394.19
2022-11-30T09:12:23.878Z,77386.09
2022-11-30T09:22:28.720Z,77394.19
2022-11-30T09:32:30.875Z,77402.28
2022-11-30T09:42:57.590Z,77394.19
2022-11-30T09:53:06.777Z,77382.03
2022-11-30T10:03:15.237Z,77398.25
2022-11-30T10:13:36.281Z,77402.28
2022-11-30T10:23:47.352Z,77390.16
2022-11-30T10:33:53.389Z,77373.94
2022-11-30T10:44:10.502Z,77369.91
2022-11-30T10:54:19.905Z,77361.81
2022-11-30T11:04:27.586Z,77341.56
2022-11-30T11:14:37.663Z,77343.56
2022-11-30T11:24:42.933Z,77349.66
2022-11-30T11:34:50.880Z,77341.56
2022-11-30T11:44:58.523Z,77349.66
2022-11-30T11:55:08.947Z,77345.59
2022-11-30T12:05:24.621Z,77325.34
2022-11-30T12:15:33.126Z,77329.41
2022-11-30T12:25:47.437Z,77317.25
2022-11-30T12:36:10.777Z,77325.34
2022-11-30T12:46:31.389Z,77325.34
2022-11-30T12:56:45.686Z,77345.59
2022-11-30T13:06:58.515Z,77349.66
2022-11-30T13:17:05.642Z,77325.34
2022-11-30T13:27:16.479Z,77333.44
2022-11-30T13:37:25.803Z,77325.34
2022-11-30T13:47:36.242Z,77325.34
2022-11-30T13:57:38.261Z,77305.13
2022-11-30T14:07:44.230Z,77305.13
2022-11-30T14:17:46.806Z,77297.00
2022-11-30T14:27:53.415Z,77292.97
2022-11-30T14:37:59.213Z,77297.00
2022-11-30T14:48:18.032Z,77284.88
2022-11-30T14:58:47.247Z,77297.00
2022-11-30T15:08:54.149Z,77290.94
2022-11-30T15:18:59.640Z,77284.88
2022-11-30T15:29:13.312Z,77280.81
2022-11-30T15:39:23.501Z,77301.06
2022-11-30T15:49:28.445Z,77301.06
2022-11-30T15:59:34.805Z,77319.28
2022-11-30T16:09:41.697Z,77307.13
2022-11-30T16:19:49.375Z,77313.22
2022-11-30T16:29:55.210Z,77292.97
2022-11-30T16:39:59.658Z,77297.00
2022-11-30T16:50:04.232Z,77305.13
2022-11-30T17:00:09.596Z,77307.13
2022-11-30T17:10:13.932Z,77321.31
2022-11-30T17:20:20.735Z,77321.31
2022-11-30T17:30:23.960Z,77327.38
2022-11-30T17:40:33.961Z,77343.56
2022-11-30T17:50:39.311Z,77333.44
2022-11-30T18:00:41.691Z,77337.50
2022-11-30T18:10:49.113Z,77341.56
2022-11-30T18:20:56.000Z,77341.56
2022-11-30T18:31:00.640Z,77333.44
2022-11-30T18:41:06.426Z,77329.41
2022-11-30T18:51:15.824Z,77319.28
2022-11-30T19:01:21.154Z,77317.25
2022-11-30T19:11:28.324Z,77313.22
2022-11-30T19:21:30.543Z,77309.16
2022-11-30T19:31:32.550Z,77305.13
2022-11-30T19:41:35.854Z,77311.19
2022-11-30T19:51:38.067Z,77297.00
2022-11-30T20:01:42.647Z,77321.31
2022-11-30T20:11:45.565Z,77315.22
2022-11-30T20:21:48.488Z,77329.41
2022-11-30T20:31:55.282Z,77319.28
2022-11-30T20:41:57.352Z,77313.22
2022-11-30T20:51:59.495Z,77323.34
2022-11-30T21:02:06.432Z,77331.44
2022-11-30T21:12:13.413Z,77339.53
2022-11-30T21:22:15.557Z,77349.66
2022-11-30T21:32:17.687Z,77349.66
2022-11-30T21:42:19.793Z,77341.56
2022-11-30T21:52:21.852Z,77319.28
2022-11-30T22:02:24.091Z,77321.31
2022-11-30T22:12:28.969Z,77284.88
2022-11-30T22:22:31.280Z,77276.75
2022-11-30T22:32:35.837Z,77297.00
2022-11-30T22:42:41.870Z,77337.50
2022-11-30T22:53:02.365Z,77359.78
2022-11-30T23:03:08.350Z,77359.78
2022-11-30T23:13:13.134Z,77351.69
2022-11-30T23:23:20.249Z,77349.66
2022-11-30T23:33:22.287Z,77347.63
2022-11-30T23:43:32.592Z,77345.59
2022-11-30T23:53:36.972Z,77363.81
